createdAt,value
2024-01-21T00:00:24.156Z,-8.27
2024-01-21T00:01:24.953Z,-8.27
2024-01-21T00:02:26.261Z,-8.27
2024-01-21T00:03:27.141Z,-8.38
2024-01-21T00:04:28.042Z,-8.38
2024-01-21T00:05:29.244Z,-8.38
2024-01-21T00:06:30.023Z,-8.38
2024-01-21T00:07:30.971Z,-8.27
2024-01-21T00:08:32.184Z,-8.38
2024-01-21T00:09:33.030Z,-8.50
2024-01-21T00:10:34.250Z,-8.50
2024-01-21T00:11:36.278Z,-8.72
2024-01-21T00:12:35.949Z,-8.77
2024-01-21T00:13:37.306Z,-8.77
2024-01-21T00:14:38.215Z,-8.77
2024-01-21T00:15:39.117Z,-8.72
2024-01-21T00:16:40.386Z,-8.72
2024-01-21T00:17:41.195Z,-8.77
2024-01-21T00:18:42.314Z,-8.77
2024-01-21T00:19:43.400Z,-8.77
2024-01-21T00:20:44.332Z,-8.77
2024-01-21T00:21:45.339Z,-8.77
2024-01-21T00:22:46.362Z,-8.77
2024-01-21T00:23:47.473Z,-8.72
2024-01-21T00:24:48.102Z,-8.50
2024-01-21T00:25:49.915Z,-8.38
2024-01-21T00:26:50.233Z,-8.38
2024-01-21T00:27:51.161Z,-8.38
2024-01-21T00:28:52.314Z,-8.38
2024-01-21T00:29:53.140Z,-8.50
2024-01-21T00:30:54.544Z,-8.61
2024-01-21T00:31:55.337Z,-8.72
2024-01-21T00:32:56.402Z,-8.61
2024-01-21T00:33:57.756Z,-8.72
2024-01-21T00:34:58.299Z,-8.72
2024-01-21T00:35:59.229Z,-8.72
2024-01-21T00:37:00.341Z,-8.61
2024-01-21T00:38:01.225Z,-8.50
2024-01-21T00:39:02.308Z,-8.50
2024-01-21T00:40:03.381Z,-8.50
2024-01-21T00:41:04.399Z,-8.50
2024-01-21T00:42:08.817Z,-8.77
2024-01-21T00:43:07.660Z,-8.77
2024-01-21T00:44:07.324Z,-8.77
2024-01-21T00:45:08.557Z,-8.77
2024-01-21T00:46:09.390Z,-8.77
2024-01-21T00:47:10.309Z,-8.72
2024-01-21T00:48:11.041Z,-8.61
2024-01-21T00:49:11.893Z,-8.50
2024-01-21T00:50:12.756Z,-8.61
2024-01-21T00:51:13.808Z,-8.72
2024-01-21T00:52:15.030Z,-8.72
2024-01-21T00:53:15.953Z,-8.61
2024-01-21T00:54:16.950Z,-8.50
2024-01-21T00:55:17.814Z,-8.50
2024-01-21T00:56:18.923Z,-8.38
2024-01-21T00:57:20.019Z,-8.38
2024-01-21T00:58:21.627Z,-8.27
2024-01-21T00:59:21.877Z,-8.11
2024-01-21T01:00:23.128Z,-8.00
2024-01-21T01:01:23.999Z,-8.00
2024-01-21T01:02:24.882Z,-8.00
2024-01-21T01:03:26.923Z,-8.00
2024-01-21T01:04:26.973Z,-8.11
2024-01-21T01:05:27.955Z,-8.11
2024-01-21T01:06:29.075Z,-8.22
2024-01-21T01:07:29.990Z,-8.27
2024-01-21T01:08:31.107Z,-8.27
2024-01-21T01:09:33.046Z,-8.27
2024-01-21T01:10:32.953Z,-8.27
2024-01-21T01:11:33.896Z,-8.22
2024-01-21T01:12:35.214Z,-8.22
2024-01-21T01:13:36.024Z,-8.22
2024-01-21T01:14:37.194Z,-8.22
2024-01-21T01:15:38.466Z,-8.11
2024-01-21T01:16:39.089Z,-8.00
2024-01-21T01:17:40.024Z,-8.00
2024-01-21T01:18:41.146Z,-7.77
2024-01-21T01:19:42.298Z,-7.72
2024-01-21T01:20:43.053Z,-7.61
2024-01-21T01:21:44.204Z,-7.50
2024-01-21T01:22:45.249Z,-7.38
2024-01-21T01:23:46.019Z,-7.22
2024-01-21T01:24:47.110Z,-7.22
2024-01-21T01:25:48.190Z,-7.22
2024-01-21T01:26:49.154Z,-7.22
2024-01-21T01:27:50.440Z,-7.22
2024-01-21T01:28:51.036Z,-7.27
2024-01-21T01:29:52.175Z,-7.38
2024-01-21T01:30:53.514Z,-7.38
2024-01-21T01:31:54.192Z,-7.50
2024-01-21T01:32:55.208Z,-7.50
2024-01-21T01:33:56.793Z,-7.61
2024-01-21T01:34:57.335Z,-7.61
2024-01-21T01:35:58.306Z,-7.72
2024-01-21T01:36:59.294Z,-7.72
2024-01-21T01:38:00.843Z,-7.77
2024-01-21T01:39:01.291Z,-7.77
2024-01-21T01:40:02.668Z,-7.88
2024-01-21T01:41:03.699Z,-7.88
2024-01-21T01:42:04.353Z,-8.00
2024-01-21T01:43:05.434Z,-8.00
2024-01-21T01:44:06.435Z,-8.00
2024-01-21T01:45:07.533Z,-8.00
2024-01-21T01:46:08.321Z,-8.00
2024-01-21T01:47:09.289Z,-8.11
2024-01-21T01:48:10.599Z,-8.11
2024-01-21T01:49:10.953Z,-8.11
2024-01-21T01:50:11.856Z,-8.22
2024-01-21T01:51:12.773Z,-8.22
2024-01-21T01:52:13.756Z,-8.22
2024-01-21T01:53:14.794Z,-8.22
2024-01-21T01:54:15.776Z,-8.00
2024-01-21T01:55:16.784Z,-8.00
2024-01-21T01:56:17.938Z,-8.00
2024-01-21T01:57:18.821Z,-8.00
2024-01-21T01:58:19.806Z,-7.88
2024-01-21T01:59:20.752Z,-7.88
2024-01-21T02:00:22.342Z,-7.77
2024-01-21T02:01:23.099Z,-7.61
2024-01-21T02:02:23.801Z,-7.61
2024-01-21T02:03:25.738Z,-7.77
2024-01-21T02:04:26.052Z,-7.77
2024-01-21T02:05:27.272Z,-7.77
2024-01-21T02:06:27.975Z,-7.77
2024-01-21T02:07:30.407Z,-7.88
2024-01-21T02:08:30.053Z,-7.88
2024-01-21T02:09:30.978Z,-7.88
2024-01-21T02:10:32.220Z,-8.00
2024-01-21T02:11:32.978Z,-8.00
2024-01-21T02:12:34.246Z,-8.11
2024-01-21T02:13:35.109Z,-8.11
2024-01-21T02:14:36.188Z,-8.11
2024-01-21T02:15:37.217Z,-8.11
2024-01-21T02:16:37.999Z,-8.11
2024-01-21T02:17:39.188Z,-8.11
2024-01-21T02:18:40.195Z,-8.11
2024-01-21T02:19:41.045Z,-7.72
2024-01-21T02:20:42.218Z,-7.72
2024-01-21T02:21:43.113Z,-7.61
2024-01-21T02:22:43.938Z,-7.61
2024-01-21T02:23:45.099Z,-7.27
2024-01-21T02:24:46.096Z,-7.27
2024-01-21T02:25:52.124Z,-7.11
2024-01-21T02:26:48.191Z,-7.11
2024-01-21T02:27:49.094Z,-7.11
2024-01-21T02:28:50.151Z,-7.00
2024-01-21T02:29:51.092Z,-7.00
2024-01-21T02:30:52.149Z,-7.11
2024-01-21T02:31:53.248Z,-7.11
2024-01-21T02:32:54.144Z,-7.11
2024-01-21T02:33:55.365Z,-6.88
2024-01-21T02:34:56.351Z,-6.88
2024-01-21T02:35:57.264Z,-6.88
2024-01-21T02:36:58.175Z,-6.88
2024-01-21T02:37:59.267Z,-6.88
2024-01-21T02:39:00.131Z,-6.88
2024-01-21T02:40:01.255Z,-6.77
2024-01-21T02:41:02.228Z,-6.77
2024-01-21T02:42:03.484Z,-6.88
2024-01-21T02:43:04.272Z,-7.00
2024-01-21T02:44:10.372Z,-7.00
2024-01-21T02:45:06.350Z,-7.00
2024-01-21T02:46:07.146Z,-6.72
2024-01-21T02:47:08.227Z,-6.38
2024-01-21T02:48:08.884Z,-6.27
2024-01-21T02:49:09.775Z,-6.27
2024-01-21T02:50:10.807Z,-6.22
2024-01-21T02:51:12.722Z,-6.22
2024-01-21T02:52:12.632Z,-6.27
2024-01-21T02:53:13.682Z,-6.27
2024-01-21T02:54:14.955Z,-6.27
2024-01-21T02:55:15.854Z,-6.38
2024-01-21T02:56:16.730Z,-6.38
2024-01-21T02:57:17.923Z,-6.38
2024-01-21T02:58:18.795Z,-6.38
2024-01-21T02:59:19.766Z,-6.38
2024-01-21T03:00:22.555Z,-6.27
2024-01-21T03:01:22.108Z,-6.27
2024-01-21T03:02:22.879Z,-6.27
2024-01-21T03:03:24.050Z,-6.27
2024-01-21T03:04:25.160Z,-6.22
2024-01-21T03:05:26.532Z,-6.00
2024-01-21T03:06:27.257Z,-6.00
2024-01-21T03:07:28.162Z,-6.00
2024-01-21T03:08:28.913Z,-6.00
2024-01-21T03:09:30.369Z,-6.00
2024-01-21T03:10:31.079Z,-6.11
2024-01-21T03:11:32.047Z,-6.11
2024-01-21T03:12:33.131Z,-8.53
2024-01-21T03:13:33.975Z,-6.00
2024-01-21T03:14:35.012Z,-5.88
2024-01-21T03:15:36.085Z,-9.46
2024-01-21T03:16:36.932Z,-5.88
2024-01-21T03:17:37.937Z,-8.29
2024-01-21T03:18:39.137Z,-5.72
2024-01-21T03:19:39.980Z,-5.77
2024-01-21T03:20:41.324Z,-5.77
2024-01-21T03:21:42.034Z,-5.88
2024-01-21T03:22:43.178Z,-5.88
2024-01-21T03:23:44.207Z,-8.53
2024-01-21T03:24:45.144Z,-5.77
2024-01-21T03:25:46.166Z,-5.77
2024-01-21T03:27:23.464Z,-5.77
2024-01-21T03:27:49.877Z,-5.72
2024-01-21T03:28:49.131Z,-8.29
2024-01-21T03:29:50.122Z,-9.12
2024-01-21T03:30:51.261Z,-8.84
2024-01-21T03:31:52.087Z,-5.61
2024-01-21T03:32:53.178Z,-5.61
2024-01-21T03:33:54.307Z,-8.29
2024-01-21T03:34:55.983Z,-5.72
2024-01-21T03:35:56.251Z,-8.64
2024-01-21T03:36:57.211Z,-9.41
2024-01-21T03:37:58.223Z,-8.81
2024-01-21T03:38:59.157Z,-5.61
2024-01-21T03:40:00.331Z,-5.61
2024-01-21T03:41:01.221Z,-8.51
2024-01-21T03:42:02.630Z,-5.61
2024-01-21T03:43:03.263Z,-5.61
2024-01-21T03:44:04.210Z,-5.61
2024-01-21T03:45:05.242Z,-5.72
2024-01-21T03:46:06.304Z,-5.77
2024-01-21T03:47:07.259Z,-5.72
2024-01-21T03:48:08.735Z,-5.72
2024-01-21T03:49:08.714Z,-5.72
2024-01-21T03:50:09.736Z,-8.29
2024-01-21T03:51:10.932Z,-8.97
2024-01-21T03:52:11.676Z,-9.41
2024-01-21T03:53:12.664Z,-9.55
2024-01-21T03:54:13.848Z,-7.83
2024-01-21T03:55:14.979Z,-8.56
2024-01-21T03:56:15.807Z,-9.67
2024-01-21T03:57:20.331Z,-5.50
2024-01-21T03:58:17.764Z,-5.38
2024-01-21T03:59:19.013Z,-10.52
2024-01-21T04:00:19.880Z,-10.01
2024-01-21T04:01:21.029Z,-9.67
2024-01-21T04:02:21.832Z,-8.73
2024-01-21T04:03:23.105Z,-8.73
2024-01-21T04:04:24.824Z,-5.50
2024-01-21T04:05:25.109Z,-8.04
2024-01-21T04:06:25.995Z,-8.56
2024-01-21T04:07:26.903Z,-9.42
2024-01-21T04:08:27.801Z,-7.96
2024-01-21T04:09:29.016Z,-9.28
2024-01-21T04:10:29.920Z,-5.61
2024-01-21T04:11:30.883Z,-8.69
2024-01-21T04:12:32.532Z,-8.51
2024-01-21T04:13:32.942Z,-5.61
2024-01-21T04:14:33.895Z,-5.61
2024-01-21T04:15:35.812Z,-8.29
2024-01-21T04:16:36.136Z,-5.72
2024-01-21T04:17:37.074Z,-5.61
2024-01-21T04:18:38.256Z,-5.72
2024-01-21T04:19:38.983Z,-8.08
2024-01-21T04:20:39.910Z,-5.72
2024-01-21T04:21:41.256Z,-5.72
2024-01-21T04:22:41.899Z,-8.34
2024-01-21T04:23:42.959Z,-9.74
2024-01-21T04:24:44.000Z,-5.77
2024-01-21T04:25:45.023Z,-5.72
2024-01-21T04:26:46.031Z,-5.72
2024-01-21T04:27:47.049Z,-5.72
2024-01-21T04:28:48.424Z,-9.12
2024-01-21T04:29:48.970Z,-8.64
2024-01-21T04:30:50.123Z,-9.55
2024-01-21T04:31:51.309Z,-9.67
2024-01-21T04:32:52.161Z,-8.99
2024-01-21T04:33:53.118Z,-5.61
2024-01-21T04:34:54.131Z,-9.67
2024-01-21T04:35:55.117Z,-8.56
2024-01-21T04:36:56.273Z,-9.42
2024-01-21T04:37:57.119Z,-5.50
2024-01-21T04:38:58.094Z,-5.50
2024-01-21T04:39:59.257Z,-5.61
2024-01-21T04:41:00.312Z,-8.69
2024-01-21T04:42:01.125Z,-5.61
2024-01-21T04:43:02.433Z,-8.39
2024-01-21T04:44:03.259Z,-5.50
2024-01-21T04:45:05.272Z,-5.61
2024-01-21T04:46:05.152Z,-8.16
2024-01-21T04:47:06.292Z,-7.96
2024-01-21T04:48:07.374Z,-5.61
2024-01-21T04:49:07.766Z,-5.61
2024-01-21T04:50:08.664Z,-8.16
2024-01-21T04:51:09.901Z,-9.14
2024-01-21T04:52:10.768Z,-8.87
2024-01-21T04:53:11.798Z,-9.67
2024-01-21T04:54:12.674Z,-8.04
2024-01-21T04:55:13.672Z,-5.38
2024-01-21T04:56:14.626Z,-5.50
2024-01-21T04:57:15.738Z,-8.84
2024-01-21T04:58:16.729Z,-8.69
2024-01-21T04:59:17.677Z,-7.96
2024-01-21T05:00:19.025Z,-5.61
2024-01-21T05:01:19.795Z,-8.51
2024-01-21T05:02:20.721Z,-5.50
2024-01-21T05:03:24.363Z,-8.56
2024-01-21T05:04:22.951Z,-5.50
2024-01-21T05:05:23.788Z,-9.42
2024-01-21T05:06:24.785Z,-9.01
2024-01-21T05:07:27.856Z,-8.73
2024-01-21T05:08:26.878Z,-5.38
2024-01-21T05:09:28.050Z,-5.38
2024-01-21T05:10:29.005Z,-7.90
2024-01-21T05:11:29.931Z,-5.38
2024-01-21T05:12:31.235Z,-8.60
2024-01-21T05:14:33.197Z,-8.75
2024-01-21T05:15:34.188Z,-5.27
2024-01-21T05:16:34.907Z,-8.75
2024-01-21T05:17:36.144Z,-9.45
2024-01-21T05:18:37.002Z,-8.23
2024-01-21T05:19:37.888Z,-5.22
2024-01-21T05:20:39.018Z,-5.22
2024-01-21T05:21:39.990Z,-5.22
2024-01-21T05:22:41.223Z,-5.27
2024-01-21T05:23:42.125Z,-5.27
2024-01-21T05:24:43.332Z,-8.60
2024-01-21T05:25:43.932Z,-5.27
2024-01-21T05:26:45.500Z,-5.27
2024-01-21T05:27:46.198Z,-9.51
2024-01-21T05:28:47.173Z,-5.27
2024-01-21T05:29:48.095Z,-8.11
2024-01-21T05:30:49.126Z,-7.94
2024-01-21T05:31:49.975Z,-8.11
2024-01-21T05:32:51.049Z,-5.22
2024-01-21T05:33:52.595Z,-8.07
2024-01-21T05:34:53.048Z,-5.27
2024-01-21T05:35:54.079Z,-5.27
2024-01-21T05:36:55.409Z,-8.88
2024-01-21T05:37:57.206Z,-8.08
2024-01-21T05:38:57.060Z,-9.28
2024-01-21T05:39:58.839Z,-9.52
2024-01-21T05:40:59.359Z,-7.77
2024-01-21T05:42:02.658Z,-9.45
2024-01-21T05:43:01.096Z,-7.90
2024-01-21T05:44:03.034Z,-8.82
2024-01-21T05:45:03.376Z,-8.23
2024-01-21T05:46:04.492Z,-7.77
2024-01-21T05:47:08.792Z,-8.29
2024-01-21T05:48:06.187Z,-8.45
2024-01-21T05:49:06.742Z,-9.02
2024-01-21T05:50:07.629Z,-7.77
2024-01-21T05:51:08.776Z,-8.29
2024-01-21T05:52:09.623Z,-9.27
2024-01-21T05:53:10.711Z,-8.12
2024-01-21T05:54:11.782Z,-9.15
2024-01-21T05:55:12.807Z,-8.88
2024-01-21T05:56:13.759Z,-8.29
2024-01-21T05:57:15.340Z,-9.15
2024-01-21T05:58:15.667Z,-5.38
2024-01-21T05:59:16.754Z,-7.70
2024-01-21T06:00:17.781Z,-8.73
2024-01-21T06:01:18.741Z,-7.95
2024-01-21T06:02:19.802Z,-5.38
2024-01-21T06:03:20.745Z,-8.25
2024-01-21T06:04:21.710Z,-5.38
2024-01-21T06:05:22.836Z,-5.50
2024-01-21T06:06:23.674Z,-5.50
2024-01-21T06:07:24.887Z,-9.97
2024-01-21T06:08:26.011Z,-5.38
2024-01-21T06:09:27.012Z,-8.58
2024-01-21T06:10:27.953Z,-5.27
2024-01-21T06:11:28.895Z,-5.38
2024-01-21T06:12:29.889Z,-9.01
2024-01-21T06:13:31.025Z,-5.50
2024-01-21T06:14:32.643Z,-7.83
2024-01-21T06:15:33.017Z,-5.50
2024-01-21T06:16:33.819Z,-5.50
2024-01-21T06:17:35.069Z,-10.22
2024-01-21T06:18:36.004Z,-5.38
2024-01-21T06:19:36.890Z,-5.38
2024-01-21T06:20:37.978Z,-8.42
2024-01-21T06:21:38.924Z,-9.52
2024-01-21T06:22:40.568Z,-5.38
2024-01-21T06:23:40.898Z,-8.12
2024-01-21T06:24:42.016Z,-8.42
2024-01-21T06:25:43.031Z,-9.28
2024-01-21T06:26:43.849Z,-5.38
2024-01-21T06:27:44.865Z,-5.50
2024-01-21T06:28:46.060Z,-5.38
2024-01-21T06:29:46.924Z,-8.25
2024-01-21T06:30:48.069Z,-8.04
2024-01-21T06:31:49.365Z,-10.01
2024-01-21T06:32:57.343Z,-7.70
2024-01-21T06:33:51.114Z,-8.25
2024-01-21T06:34:52.452Z,-7.90
2024-01-21T06:35:53.127Z,-8.42
2024-01-21T06:36:54.116Z,-8.42
2024-01-21T06:37:55.202Z,-8.58
2024-01-21T06:38:56.229Z,-5.38
2024-01-21T06:40:03.108Z,-8.69
2024-01-21T06:40:58.176Z,-5.61
2024-01-21T06:41:59.244Z,-9.42
2024-01-21T06:43:00.299Z,-5.61
2024-01-21T06:44:01.240Z,-8.16
2024-01-21T06:45:02.374Z,-5.61
2024-01-21T06:46:03.214Z,-5.61
2024-01-21T06:47:07.746Z,-9.42
2024-01-21T06:48:05.287Z,-8.04
2024-01-21T06:49:06.853Z,-8.56
2024-01-21T06:50:06.787Z,-5.50
2024-01-21T06:51:07.919Z,-7.96
2024-01-21T06:52:08.954Z,-8.16
2024-01-21T06:53:09.800Z,-9.55
2024-01-21T06:54:10.703Z,-9.78
2024-01-21T06:55:11.679Z,-8.87
2024-01-21T06:56:12.712Z,-8.42
2024-01-21T06:57:13.670Z,-8.29
2024-01-21T06:58:15.028Z,-7.77
2024-01-21T06:59:16.024Z,-5.27
2024-01-21T07:00:16.982Z,-5.38
2024-01-21T07:01:17.936Z,-5.38
2024-01-21T07:02:18.829Z,-8.99
2024-01-21T07:03:19.826Z,-10.35
2024-01-21T07:04:22.151Z,-5.38
2024-01-21T07:05:21.688Z,-5.38
2024-01-21T07:06:23.199Z,-5.50
2024-01-21T07:07:23.781Z,-8.39
2024-01-21T07:08:24.958Z,-5.61
2024-01-21T07:09:25.951Z,-8.99
2024-01-21T07:10:26.791Z,-8.34
2024-01-21T07:11:29.601Z,-5.50
2024-01-21T07:12:29.059Z,-5.50
2024-01-21T07:13:29.853Z,-5.61
2024-01-21T07:14:31.058Z,-8.69
2024-01-21T07:15:32.244Z,-5.72
2024-01-21T07:16:35.883Z,-5.72
2024-01-21T07:17:34.018Z,-9.55
2024-01-21T07:18:36.398Z,-9.28
2024-01-21T07:19:36.151Z,-8.22
2024-01-21T07:20:36.822Z,-5.50
2024-01-21T07:21:38.439Z,-5.38
2024-01-21T07:22:39.127Z,-5.38
2024-01-21T07:23:40.132Z,-8.08
2024-01-21T07:24:41.095Z,-8.73
2024-01-21T07:25:42.159Z,-5.38
2024-01-21T07:26:42.912Z,-5.38
2024-01-21T07:27:44.050Z,-5.38
2024-01-21T07:28:45.031Z,-5.27
2024-01-21T07:29:46.065Z,-5.22
2024-01-21T07:30:47.707Z,-5.22
2024-01-21T07:31:48.095Z,-5.27
2024-01-21T07:32:52.795Z,-5.27
2024-01-21T07:33:50.364Z,-5.27
2024-01-21T07:34:51.408Z,-5.27
2024-01-21T07:35:52.352Z,-5.27
2024-01-21T07:36:53.334Z,-9.02
2024-01-21T07:37:54.361Z,-5.27
2024-01-21T07:38:55.314Z,-5.22
2024-01-21T07:39:56.759Z,-5.22
2024-01-21T07:40:57.378Z,-7.90
2024-01-21T07:41:58.537Z,-7.94
2024-01-21T07:42:59.586Z,-5.11
2024-01-21T07:44:00.351Z,-7.59
2024-01-21T07:45:01.524Z,-5.11
2024-01-21T07:46:02.930Z,-7.81
2024-01-21T07:47:03.415Z,-7.13
2024-01-21T07:48:04.379Z,-4.88
2024-01-21T07:49:05.027Z,-4.88
2024-01-21T07:50:05.806Z,-8.29
2024-01-21T07:51:06.758Z,-6.95
2024-01-21T07:52:07.629Z,-4.61
2024-01-21T07:53:08.844Z,-7.02
2024-01-21T07:54:09.753Z,-4.50
2024-01-21T07:55:13.679Z,-4.50
2024-01-21T07:56:11.786Z,-7.98
2024-01-21T07:57:13.148Z,-4.50
2024-01-21T07:58:13.753Z,-4.50
2024-01-21T07:59:14.806Z,-7.70
2024-01-21T08:00:16.072Z,-8.24
2024-01-21T08:01:16.877Z,-6.70
2024-01-21T08:02:18.021Z,-7.24
2024-01-21T08:03:19.032Z,-7.98
2024-01-21T08:04:20.070Z,-4.61
2024-01-21T08:05:20.916Z,-7.68
2024-01-21T08:06:21.821Z,-9.15
2024-01-21T08:07:22.902Z,-6.82
2024-01-21T08:08:24.359Z,-8.11
2024-01-21T08:09:26.165Z,-7.02
2024-01-21T08:10:25.801Z,-7.20
2024-01-21T08:11:27.489Z,-4.61
2024-01-21T08:12:28.063Z,-4.61
2024-01-21T08:13:28.847Z,-8.72
2024-01-21T08:14:30.049Z,-4.61
2024-01-21T08:15:31.620Z,-8.37
2024-01-21T08:16:32.080Z,-4.72
2024-01-21T08:17:33.453Z,-4.72
2024-01-21T08:18:37.640Z,-7.66
2024-01-21T08:19:35.723Z,-7.55
2024-01-21T08:20:36.365Z,-8.56
2024-01-21T08:21:37.047Z,-4.77
2024-01-21T08:22:39.680Z,-7.51
2024-01-21T08:23:39.294Z,-8.93
2024-01-21T08:24:41.131Z,-4.77
2024-01-21T08:25:46.258Z,-7.20
2024-01-21T08:26:42.165Z,-7.71
2024-01-21T08:27:43.431Z,-4.72
2024-01-21T08:28:44.152Z,-4.72
2024-01-21T08:29:45.202Z,-7.49
2024-01-21T08:30:46.445Z,-7.15
2024-01-21T08:31:46.954Z,-4.72
2024-01-21T08:32:48.401Z,-4.72
2024-01-21T08:33:49.325Z,-7.36
2024-01-21T08:34:50.368Z,-7.36
2024-01-21T08:35:51.347Z,-7.49
2024-01-21T08:36:52.208Z,-7.66
2024-01-21T08:37:53.346Z,-7.02
2024-01-21T08:38:54.315Z,-8.11
2024-01-21T08:39:55.468Z,-8.11
2024-01-21T08:40:56.205Z,-4.50
2024-01-21T08:41:57.801Z,-7.24
2024-01-21T08:42:58.036Z,-7.56
2024-01-21T08:43:59.207Z,-7.56
2024-01-21T08:45:00.401Z,-6.44
2024-01-21T08:46:01.593Z,-8.53
2024-01-21T08:47:03.687Z,-7.14
2024-01-21T08:48:03.600Z,-6.63
2024-01-21T08:49:04.970Z,-7.29
2024-01-21T08:50:04.698Z,-6.81
2024-01-21T08:51:05.854Z,-8.21
2024-01-21T08:52:06.713Z,-4.27
2024-01-21T08:53:07.872Z,-4.27
2024-01-21T08:54:08.734Z,-7.37
2024-01-21T08:55:09.848Z,-7.78
2024-01-21T08:56:10.754Z,-7.91
2024-01-21T08:57:12.693Z,-7.52
2024-01-21T08:58:12.914Z,-8.15
2024-01-21T08:59:13.729Z,-7.78
2024-01-21T09:00:15.654Z,-4.22
2024-01-21T09:01:16.010Z,-6.91
2024-01-21T09:02:16.941Z,-7.78
2024-01-21T09:03:18.125Z,-6.45
2024-01-21T09:04:19.025Z,-6.95
2024-01-21T09:05:20.082Z,-6.63
2024-01-21T09:06:20.733Z,-7.52
2024-01-21T09:07:21.986Z,-4.11
2024-01-21T09:08:23.197Z,-7.10
2024-01-21T09:09:24.020Z,-6.95
2024-01-21T09:10:24.820Z,-4.11
2024-01-21T09:11:26.217Z,-6.66
2024-01-21T09:12:26.995Z,-6.50
2024-01-21T09:13:28.061Z,-3.88
2024-01-21T09:14:29.075Z,-6.69
2024-01-21T09:15:30.250Z,-3.88
2024-01-21T09:16:30.886Z,-6.06
2024-01-21T09:17:32.049Z,-3.72
2024-01-21T09:18:33.045Z,-3.72
2024-01-21T09:19:36.731Z,-7.19
2024-01-21T09:20:36.498Z,-6.37
2024-01-21T09:21:36.197Z,-7.94
2024-01-21T09:22:37.036Z,-6.21
2024-01-21T09:23:38.038Z,-3.61
2024-01-21T09:24:39.517Z,-5.75
2024-01-21T09:25:40.058Z,-7.29
2024-01-21T09:26:46.362Z,-6.25
2024-01-21T09:27:42.099Z,-3.50
2024-01-21T09:28:42.915Z,-3.50
2024-01-21T09:29:44.546Z,-7.40
2024-01-21T09:30:45.379Z,-3.50
2024-01-21T09:31:46.217Z,-3.38
2024-01-21T09:32:47.144Z,-6.11
2024-01-21T09:33:48.364Z,-5.79
2024-01-21T09:34:49.117Z,-5.62
2024-01-21T09:35:50.046Z,-6.92
2024-01-21T09:36:51.477Z,-6.25
2024-01-21T09:37:52.296Z,-6.11
2024-01-21T09:38:53.337Z,-6.66
2024-01-21T09:39:55.364Z,-7.57
2024-01-21T09:40:55.309Z,-7.85
2024-01-21T09:41:56.400Z,-6.40
2024-01-21T09:42:57.473Z,-8.12
2024-01-21T09:43:58.293Z,-7.85
2024-01-21T09:44:59.454Z,-6.66
2024-01-21T09:46:00.578Z,-8.61
2024-01-21T09:47:01.419Z,-6.41
2024-01-21T09:48:02.325Z,-6.13
2024-01-21T09:49:02.857Z,-6.73
2024-01-21T09:50:04.035Z,-7.47
2024-01-21T09:51:04.855Z,-8.01
2024-01-21T09:52:06.733Z,-5.43
2024-01-21T09:53:07.005Z,-6.07
2024-01-21T09:54:08.121Z,-6.35
2024-01-21T09:55:08.964Z,-3.22
2024-01-21T09:56:14.847Z,-7.14
2024-01-21T09:57:10.928Z,-7.24
2024-01-21T09:58:11.788Z,-6.71
2024-01-21T09:59:14.003Z,-6.08
2024-01-21T10:00:14.117Z,-7.34
2024-01-21T10:01:14.975Z,-6.08
2024-01-21T10:02:15.977Z,-5.64
2024-01-21T10:03:16.868Z,-5.80
2024-01-21T10:04:18.342Z,-3.00
2024-01-21T10:05:19.147Z,-6.70
2024-01-21T10:06:19.943Z,-5.95
2024-01-21T10:07:21.008Z,-2.88
2024-01-21T10:08:22.062Z,-6.66
2024-01-21T10:09:24.821Z,-5.53
2024-01-21T10:10:24.173Z,-5.95
2024-01-21T10:11:25.192Z,-5.53
2024-01-21T10:12:26.043Z,-5.81
2024-01-21T10:13:28.538Z,-2.88
2024-01-21T10:14:27.945Z,-2.88
2024-01-21T10:15:29.260Z,-5.05
2024-01-21T10:16:30.125Z,-5.09
2024-01-21T10:17:31.268Z,-5.55
2024-01-21T10:18:32.221Z,-4.86
2024-01-21T10:19:33.761Z,-6.55
2024-01-21T10:20:34.149Z,-3.00
2024-01-21T10:21:35.943Z,-5.18
2024-01-21T10:22:36.096Z,-5.95
2024-01-21T10:23:37.121Z,-5.67
2024-01-21T10:24:38.015Z,-3.00
2024-01-21T10:25:39.202Z,-2.88
2024-01-21T10:26:40.043Z,-2.77
2024-01-21T10:27:41.089Z,-2.77
2024-01-21T10:28:42.051Z,-2.77
2024-01-21T10:29:43.301Z,-2.77
2024-01-21T10:30:49.329Z,-2.72
2024-01-21T10:31:45.264Z,-2.72
2024-01-21T10:32:46.551Z,-2.72
2024-01-21T10:33:47.498Z,-2.77
2024-01-21T10:34:48.815Z,-2.77
2024-01-21T10:35:49.706Z,-2.77
2024-01-21T10:36:50.874Z,-2.61
2024-01-21T10:37:51.546Z,-2.50
2024-01-21T10:38:52.480Z,-2.38
2024-01-21T10:39:53.410Z,-2.27
2024-01-21T10:40:54.827Z,-2.27
2024-01-21T10:41:55.337Z,-2.38
2024-01-21T10:42:56.549Z,-2.38
2024-01-21T10:43:57.272Z,-4.80
2024-01-21T10:44:58.435Z,-5.09
2024-01-21T10:45:59.524Z,-2.72
2024-01-21T10:47:00.320Z,-2.77
2024-01-21T10:48:01.671Z,-2.77
2024-01-21T10:49:02.062Z,-2.77
2024-01-21T10:50:03.322Z,-2.77
2024-01-21T10:51:04.013Z,-2.77
2024-01-21T10:52:05.136Z,-2.77
2024-01-21T10:53:05.954Z,-5.05
2024-01-21T10:54:06.909Z,-4.86
2024-01-21T10:55:08.207Z,-2.77
2024-01-21T10:56:09.101Z,-2.77
2024-01-21T10:57:09.974Z,-2.72
2024-01-21T10:58:11.156Z,-2.72
2024-01-21T10:59:12.280Z,-2.72
2024-01-21T11:00:13.305Z,-2.61
2024-01-21T11:01:14.123Z,-2.38
2024-01-21T11:02:15.116Z,-2.27
2024-01-21T11:03:16.347Z,-2.38
2024-01-21T11:04:17.133Z,-5.37
2024-01-21T11:05:18.351Z,-5.09
2024-01-21T11:06:19.328Z,-2.50
2024-01-21T11:07:20.241Z,-5.50
2024-01-21T11:08:21.087Z,-2.61
2024-01-21T11:09:22.111Z,-2.61
2024-01-21T11:10:22.889Z,-2.61
2024-01-21T11:11:24.000Z,-4.55
2024-01-21T11:12:25.069Z,-4.86
2024-01-21T11:13:26.364Z,-5.69
2024-01-21T11:14:26.929Z,-2.77
2024-01-21T11:15:29.022Z,-2.88
2024-01-21T11:16:29.005Z,-2.77
2024-01-21T11:17:30.319Z,-2.72
2024-01-21T11:18:31.107Z,-2.72
2024-01-21T11:19:33.358Z,-2.72
2024-01-21T11:20:33.118Z,-5.34
2024-01-21T11:21:34.024Z,-5.06
2024-01-21T11:22:36.032Z,-2.61
2024-01-21T11:23:36.220Z,-2.61
2024-01-21T11:24:37.339Z,-5.22
2024-01-21T11:25:38.302Z,-5.06
2024-01-21T11:26:39.430Z,-2.61
2024-01-21T11:27:40.173Z,-2.61
2024-01-21T11:28:41.303Z,-5.50
2024-01-21T11:29:42.287Z,-5.50
2024-01-21T11:30:46.596Z,-2.72
2024-01-21T11:31:44.454Z,-5.06
2024-01-21T11:32:45.530Z,-2.61
2024-01-21T11:33:46.466Z,-5.76
2024-01-21T11:34:50.653Z,-4.43
2024-01-21T11:35:48.316Z,-2.50
2024-01-21T11:36:49.376Z,-2.50
2024-01-21T11:37:50.302Z,-4.93
2024-01-21T11:38:51.169Z,-4.93
2024-01-21T11:39:52.481Z,-2.38
2024-01-21T11:40:56.620Z,-2.38
2024-01-21T11:41:54.431Z,-4.29
2024-01-21T11:42:58.086Z,-2.38
2024-01-21T11:43:56.479Z,-2.50
2024-01-21T11:44:57.417Z,-2.50
2024-01-21T11:45:58.853Z,-2.50
2024-01-21T11:47:02.273Z,-2.50
2024-01-21T11:48:00.745Z,-4.91
2024-01-21T11:49:00.846Z,-2.61
2024-01-21T11:50:02.648Z,-2.50
2024-01-21T11:51:03.967Z,-2.38
2024-01-21T11:52:03.915Z,-2.27
2024-01-21T11:53:04.891Z,-2.27
2024-01-21T11:54:05.708Z,-2.27
2024-01-21T11:55:07.295Z,-2.22
2024-01-21T11:56:08.034Z,-2.22
2024-01-21T11:57:09.092Z,-2.22
2024-01-21T11:58:09.777Z,-2.22
2024-01-21T11:59:13.641Z,-2.22
2024-01-21T12:00:12.298Z,-2.11
2024-01-21T12:01:13.127Z,-2.00
2024-01-21T12:02:14.045Z,-2.00
2024-01-21T12:03:15.034Z,-2.11
2024-01-21T12:04:16.107Z,-2.22
2024-01-21T12:05:17.331Z,-2.27
2024-01-21T12:06:18.169Z,-2.27
2024-01-21T12:07:19.074Z,-2.27
2024-01-21T12:08:19.829Z,-5.04
2024-01-21T12:09:23.718Z,-5.04
2024-01-21T12:10:22.055Z,-2.27
2024-01-21T12:11:22.938Z,-2.22
2024-01-21T12:12:24.007Z,-2.22
2024-01-21T12:13:25.240Z,-2.11
2024-01-21T12:14:25.975Z,-2.22
2024-01-21T12:15:27.212Z,-2.22
2024-01-21T12:16:28.051Z,-2.27
2024-01-21T12:17:29.152Z,-4.29
2024-01-21T12:18:30.003Z,-2.50
2024-01-21T12:19:31.091Z,-2.50
2024-01-21T12:20:32.916Z,-4.91
2024-01-21T12:21:33.165Z,-2.61
2024-01-21T12:22:34.136Z,-2.61
2024-01-21T12:23:35.166Z,-2.61
2024-01-21T12:24:36.162Z,-2.61
2024-01-21T12:25:37.100Z,-2.61
2024-01-21T12:26:38.009Z,-2.50
2024-01-21T12:27:39.041Z,-2.38
2024-01-21T12:28:40.181Z,-2.38
2024-01-21T12:29:40.918Z,-2.38
2024-01-21T12:30:42.622Z,-2.38
2024-01-21T12:31:43.180Z,-2.50
2024-01-21T12:33:45.333Z,-2.50
2024-01-21T12:34:46.224Z,-2.50
2024-01-21T12:35:47.221Z,-2.50
2024-01-21T12:36:48.389Z,-2.50
2024-01-21T12:37:49.248Z,-2.50
2024-01-21T12:38:51.838Z,-2.38
2024-01-21T12:39:51.400Z,-2.38
2024-01-21T12:40:52.342Z,-5.61
2024-01-21T12:41:53.391Z,-2.50
2024-01-21T12:42:54.462Z,-2.50
2024-01-21T12:43:55.465Z,-4.74
2024-01-21T12:44:59.127Z,-2.61
2024-01-21T12:46:00.381Z,-2.61
2024-01-21T12:46:59.082Z,-2.61
2024-01-21T12:47:59.391Z,-4.74
2024-01-21T12:48:59.980Z,-2.61
2024-01-21T12:50:04.549Z,-4.91
2024-01-21T12:51:01.642Z,-2.61
2024-01-21T12:52:03.981Z,-2.61
2024-01-21T12:53:03.749Z,-2.72
2024-01-21T12:54:05.420Z,-2.72
2024-01-21T12:55:06.350Z,-2.72
2024-01-21T12:56:09.829Z,-2.72
2024-01-21T12:57:08.411Z,-2.72
2024-01-21T12:58:08.916Z,-2.72
2024-01-21T12:59:10.298Z,-2.72
2024-01-21T13:00:11.106Z,-2.72
2024-01-21T13:01:11.712Z,-2.72
2024-01-21T13:02:12.818Z,-4.74
2024-01-21T13:03:13.870Z,-5.95
2024-01-21T13:04:15.140Z,-2.77
2024-01-21T13:05:15.844Z,-2.77
2024-01-21T13:06:16.829Z,-2.72
2024-01-21T13:07:17.911Z,-2.72